Pottsville, Texas
Current Conditions -  °F | °C
As of 7:55 AM on Monday 22 Dec 2014 (Local Time) from KMNZ Reporting Station
Clear Clear  
Wind Chill: 54°   Ceiling: Unl
Heat Index: 54°   Visibility: 10mi
Dew Point: 50°   Wind: 22mph
Humidity: 86%   Direction: 230°SW
Pressure: 29.66"   Gusts: 28mph
Location:  31.67°N, 98.33°W
Report Text: KMNZ 221355Z AUTO 23019G24KT 10SM CLR 12/10 A2966 RMK AO2 T01230100
Loading
Personal Weather Stations






























Interactive Weather Map New forecast layout! Learn more

10-Day Weather Forecast

Advertisements
Track Severe Weather on mobile